Terminal Aerodrome Forecast
Issued by NWS

Home | Current Version | Previous Version | Text Only | Print | Product List | Glossary On
Versions: 1 2 3 4 5 6 7 8 9 10 11 12 13 14 15 16 17 18 19 20 21 22 23 24
000
FTPA31 PHFO 040500
TAFJRF
TAF
PHJR 040520Z 0406/0506 VRB04KT P6SM FEW030 OVC200
     FM042000 02008G15KT P6SM VCSH FEW025 BKN040 OVC200
     FM050400 04005KT P6SM VCSH FEW025 BKN040 BKN250=

USA.gov is the U.S. government's official web portal to all federal, state and local government web resources and services.